Serenade Of The Seas — C6FV8 — position and weather

sailwx.info

Track history (hours):
 
Tides and Currents Weather Stations Pressure Air Temp Water Temp Dewpoint Dewpoint Depression Visibility Wind Speed Wind Dir Waves Ship Positions

Serenade Of The Seas

Operator: Royal Caribbean Cruises Ltd

Last reported at 2014-Dec-18 11:03 UTC. Time now 2014-Dec-18 17:25 UTC.
Position N 25°37' W 080°01'.

Length 294 m; draft 8.5 m.

Type: Ship. MMSI: 311492000.

Date/timePositionNaut miles runAvg speedWind from/ knotsBaromVisibWave heightAir tempDewpointWater temp
2014-Dec-18 11:03N 25°37' W 080°01'713.1
2014-Dec-18 10:34N 25°43' W 080°01'4 4.0
2014-Dec-18 09:33N 25°45' W 080°05'8 8.3
2014-Dec-18 08:33N 25°50' W 079°57'1817.7
2014-Dec-18 07:33N 25°58' W 079°39'1818.4
2014-Dec-18 06:33N 26°06' W 079°21'10 0.2
2014-Dec-16 08:33N 25°56' W 079°21'  
2014-Dec-14 00:11N 29°50' W 089°60'8 1.3
2014-Dec-13 18:12N 29°57' W 090°04'0 0.0
2014-Dec-13 16:33N 29°57' W 090°04'0 0.0
2014-Dec-13 15:27N 29°57' W 090°04'0 0.0
2014-Dec-13 14:33N 29°57' W 090°04'0 0.0
2014-Dec-13 13:30N 29°57' W 090°04'2 2.6
2014-Dec-13 12:33N 29°57' W 090°01'5 3.9
2014-Dec-13 11:22N 29°53' W 089°58'1011.3
2014-Dec-13 10:28N 29°43' W 089°59'57416.4
2014-Dec-11 23:32N 20°32' W 086°57'4 3.5
2014-Dec-11 22:30N 20°29' W 086°59'0 0.0
2014-Dec-11 21:30N 20°29' W 086°59'0 0.0
2014-Dec-11 20:30N 20°29' W 086°59'0 0.0
2014-Dec-11 19:30N 20°29' W 086°59'0 0.0
2014-Dec-11 18:33N 20°29' W 086°59'0 0.0
2014-Dec-11 17:33N 20°29' W 086°59'0 0.0
2014-Dec-11 16:33N 20°29' W 086°59'0 0.0
2014-Dec-11 15:33N 20°29' W 086°59'0 0.0
2014-Dec-11 14:33N 20°29' W 086°59'6 5.8
2014-Dec-11 13:31N 20°34' W 086°56'  
Track history (hours):
 
Tides and Currents Weather Stations Pressure Air Temp Water Temp Dewpoint Dewpoint Depression Visibility Wind Speed Wind Dir Waves Ship Positions

Serenade Of The Seas

Operator: Royal Caribbean Cruises Ltd

Last reported at 2014-Dec-18 11:03 UTC. Time now 2014-Dec-18 17:25 UTC.
Position N 25°37' W 080°01'.

Length 294 m; draft 8.5 m.

Type: Ship. MMSI: 311492000.

Date/timePositionNaut miles runAvg speedWind from/ knotsBaromVisibWave heightAir tempDewpointWater temp
2014-Dec-18 11:03N 25°37' W 080°01'713.1
2014-Dec-18 10:34N 25°43' W 080°01'4 4.0
2014-Dec-18 09:33N 25°45' W 080°05'8 8.3
2014-Dec-18 08:33N 25°50' W 079°57'1817.7
2014-Dec-18 07:33N 25°58' W 079°39'1818.4
2014-Dec-18 06:33N 26°06' W 079°21'10 0.2
2014-Dec-16 08:33N 25°56' W 079°21'  
2014-Dec-14 00:11N 29°50' W 089°60'8 1.3
2014-Dec-13 18:12N 29°57' W 090°04'0 0.0
2014-Dec-13 16:33N 29°57' W 090°04'0 0.0
2014-Dec-13 15:27N 29°57' W 090°04'0 0.0
2014-Dec-13 14:33N 29°57' W 090°04'0 0.0
2014-Dec-13 13:30N 29°57' W 090°04'2 2.6
2014-Dec-13 12:33N 29°57' W 090°01'5 3.9
2014-Dec-13 11:22N 29°53' W 089°58'1011.3
2014-Dec-13 10:28N 29°43' W 089°59'57416.4
2014-Dec-11 23:32N 20°32' W 086°57'4 3.5
2014-Dec-11 22:30N 20°29' W 086°59'0 0.0
2014-Dec-11 21:30N 20°29' W 086°59'0 0.0
2014-Dec-11 20:30N 20°29' W 086°59'0 0.0
2014-Dec-11 19:30N 20°29' W 086°59'0 0.0
2014-Dec-11 18:33N 20°29' W 086°59'0 0.0
2014-Dec-11 17:33N 20°29' W 086°59'0 0.0
2014-Dec-11 16:33N 20°29' W 086°59'0 0.0
2014-Dec-11 15:33N 20°29' W 086°59'0 0.0
2014-Dec-11 14:33N 20°29' W 086°59'6 5.8
2014-Dec-11 13:31N 20°34' W 086°56'  

Dump ship's entire track history